203-й пикет

Карта отелей и гостиниц, располагающихся рядом с аэропортом 203-й пикет :

203-й пикет Республика Коми 64° 19' 50.9988" N, 57° 22' 19.3188" E
203-й пикет Республика Коми 64° 19' 50.9988" N, 57° 22' 19.3188" E
Код аэродрома ИКАО: 
UUXD
Код аэродрома RU: 
УУЬД
Координаты: 
N64.33083° E057.37203°
Превышение над уровнем моря : 
110
Основная полоса: 
08/26
Курс магнитный: 
081,4/261,4
Длина основной ВПП: 
18
Ширина основной ВПП: 
18
Покрытие основной ВПП: 
Твёрдое (бетон)
Освещение ВПП: 
Нет
Тип: 
Вертодром
Класс аэродрома: 
Принадлежность: 
ГА
Статус: 
Действующий
Сайт: 
E-mail аэродрома: 
gazavia, gsp@mail.ru
Страна: 
Россия
Регион: 
Республика Коми
Город: 
Дополнительная информация: 
Оператор: ОАО «Севергазпром» Ухтинский филиал ООО Авиапредприятие «Газпромавиа». Взлет и посадка в секторе Ам 040°-140° с ПП2 запрещены.

Найти трансфер

С помощью этой формы Вы можете найти трансфер из аэропорта 203-й пикет в город, аэропорт или вокзал:

Карта места

Javascript is required to view this map.

Погода в аэропортах:

Авиационная погода в Хомутово

Регион: 
Погода METAR: 
UHSS 270730Z 35006MPS 9999 -SHRA BKN032CB 08/06 Q1016 R01/250255 NOSIG RMK MT OBSC QFE761/1014
Время наблюдения: 
2020-09-27T07:30:00Z
Температура C: 
8.0
Точка росы: 
6.0
Направление ветра: 
350
Скорость ветра (узлы): 
12
Метеорологическая видимость: 
6.21
Явления погоды: 
-SHRA
Условия полета: 
VFR
Аэропорт подробнее: 

Авиационная погода в Минеральные Воды

Регион: 
Погода METAR: 
URMM 270730Z 11007MPS 9999 -DZ OVC009 18/15 Q1018 R12/090070 NOSIG RMK MT OBSC QFE735/0980
Время наблюдения: 
2020-09-27T07:30:00Z
Температура C: 
18.0
Точка росы: 
15.0
Направление ветра: 
110
Скорость ветра (узлы): 
14
Метеорологическая видимость: 
6.21
Явления погоды: 
-DZ
Условия полета: 
IFR
Аэропорт подробнее: 

Авиационная погода в Элисте

Регион: 
Погода METAR: 
URWI 270730Z 12010MPS 9000 -DS NSC 19/06 Q1022 R09/010065 TEMPO 12013G20MPS 3000 -DS
Время наблюдения: 
2020-09-27T07:30:00Z
Температура C: 
19.0
Точка росы: 
6.0
Направление ветра: 
120
Скорость ветра (узлы): 
19
Метеорологическая видимость: 
5.59
Явления погоды: 
-DS
Условия полета: 
VFR
Аэропорт подробнее: 

Авиационная погода в Мурманске

Регион: 
Погода METAR: 
ULMM 270730Z 14002MPS 1300 1200SW R31/1300D BR SCT003 02/02 Q1031 R31/290060 BECMG 5000 BR SCT016 RMK QBB100 OBST OBSC QFE765
Время наблюдения: 
2020-09-27T07:30:00Z
Температура C: 
2.0
Точка росы: 
2.0
Направление ветра: 
140
Скорость ветра (узлы): 
4
Метеорологическая видимость: 
0.81
Явления погоды: 
BR
Условия полета: 
LIFR
Аэропорт подробнее: